Time;durP1;ratioP1;P1;durP2;ratioP2;P2;SDS_P1;SDS_P2;PMS_P1;PMS_P2;Temp;Humidity;BMP_temperature;BMP_pressure;BME280_temperature;BME280_humidity;BME280_pressure;Samples;Min_cycle;Max_cycle;Signal;HPM_P1;HPM_P2
2023/04/30 00:00:49;;;;;;;13.10;6.73;;;5.50;99.90;;;;;;4842457;29;20644;-92
2023/04/30 00:03:15;;;;;;;9.43;6.00;;;5.40;99.90;;;;;;4840335;29;20767;-92
2023/04/30 00:05:40;;;;;;;11.27;6.60;;;5.30;99.90;;;;;;4841759;29;20417;-92
2023/04/30 00:08:06;;;;;;;10.80;6.73;;;5.30;99.90;;;;;;4840690;29;20524;-91
2023/04/30 00:10:32;;;;;;;14.50;8.27;;;5.20;99.90;;;;;;4840800;29;20547;-92
2023/04/30 00:12:57;;;;;;;11.05;7.15;;;5.40;99.90;;;;;;4841385;29;20420;-91
2023/04/30 00:15:23;;;;;;;10.40;7.75;;;5.30;99.90;;;;;;4840032;29;20468;-94
2023/04/30 00:17:49;;;;;;;14.17;8.10;;;5.30;99.90;;;;;;4841592;29;20424;-94
2023/04/30 00:20:14;;;;;;;15.43;8.50;;;5.20;99.90;;;;;;4839696;29;20421;-91
2023/04/30 00:22:40;;;;;;;11.18;7.95;;;5.20;99.90;;;;;;4841857;29;20417;-94
2023/04/30 00:25:06;;;;;;;12.03;7.20;;;5.20;99.90;;;;;;4841512;29;20429;-93
2023/04/30 00:27:31;;;;;;;9.13;6.07;;;5.10;99.90;;;;;;4844565;29;20492;-92
2023/04/30 00:29:57;;;;;;;8.45;5.43;;;5.20;99.90;;;;;;4843839;29;20451;-92
2023/04/30 00:32:23;;;;;;;9.20;5.93;;;5.10;99.90;;;;;;4844014;29;20431;-91
2023/04/30 00:34:49;;;;;;;9.98;6.55;;;5.30;99.90;;;;;;4844543;29;20452;-93
2023/04/30 00:37:14;;;;;;;10.27;6.60;;;5.40;99.90;;;;;;4858213;29;20827;-92
2023/04/30 00:39:40;;;;;;;11.63;7.03;;;5.10;99.90;;;;;;4844055;29;20463;-92
2023/04/30 00:42:06;;;;;;;11.07;6.53;;;5.10;99.90;;;;;;4841959;29;20452;-90
2023/04/30 00:44:31;;;;;;;12.00;7.03;;;4.80;99.90;;;;;;4844133;29;20432;-91
2023/04/30 00:46:57;;;;;;;7.73;5.53;;;5.00;99.90;;;;;;4842296;29;20429;-92
2023/04/30 00:49:23;;;;;;;9.43;5.60;;;5.10;99.90;;;;;;4842878;29;20470;-92
2023/04/30 00:51:49;;;;;;;6.95;5.88;;;4.80;99.90;;;;;;4843446;29;20528;-93
2023/04/30 00:54:16;;;;;;;10.00;5.82;;;4.80;99.90;;;;;;4842926;29;20424;-93
2023/04/30 00:56:42;;;;;;;8.87;6.10;;;4.90;99.90;;;;;;4844319;29;20787;-91
2023/04/30 00:59:09;;;;;;;10.37;6.13;;;4.70;99.90;;;;;;4842505;29;20420;-92
2023/04/30 01:01:35;;;;;;;8.98;5.40;;;4.90;99.90;;;;;;4844312;29;20507;-93
2023/04/30 01:04:01;;;;;;;9.40;5.90;;;4.80;99.90;;;;;;4843031;29;20516;-92
2023/04/30 01:06:27;;;;;;;8.70;5.72;;;4.90;99.90;;;;;;4843889;29;20460;-93
2023/04/30 01:08:53;;;;;;;8.10;6.28;;;4.90;99.90;;;;;;4843057;29;20520;-90
2023/04/30 01:11:24;;;;;;;7.28;5.55;;;4.90;99.90;;;;;;4843215;29;20445;-91
2023/04/30 01:14:15;;;;;;;10.23;6.45;;;5.00;99.90;;;;;;4844073;29;20855;-92
2023/04/30 01:17:01;;;;;;;8.15;7.07;;;5.10;99.90;;;;;;4842276;29;20436;-92
2023/04/30 01:19:29;;;;;;;11.03;6.70;;;5.20;99.90;;;;;;4844053;29;20593;-92
2023/04/30 01:22:00;;;;;;;9.68;7.10;;;5.10;99.90;;;;;;4843035;29;20511;-92
2023/04/30 01:25:00;;;;;;;8.10;6.30;;;5.20;99.90;;;;;;4842792;29;20425;-92
2023/04/30 01:28:00;;;;;;;10.75;7.60;;;5.20;99.90;;;;;;4843992;29;20926;-91
2023/04/30 01:30:26;;;;;;;13.10;7.95;;;5.30;99.90;;;;;;4830178;29;20452;-92
2023/04/30 01:32:52;;;;;;;11.30;7.32;;;5.40;99.90;;;;;;4843274;29;21010;-91
2023/04/30 01:35:17;;;;;;;7.55;5.47;;;5.40;99.90;;;;;;4843226;29;20449;-91
2023/04/30 01:38:01;;;;;;;11.67;7.97;;;5.50;99.90;;;;;;4841297;29;20423;-91
2023/04/30 01:40:52;;;;;;;12.97;9.10;;;5.70;99.90;;;;;;4843629;29;20416;-91
2023/04/30 01:43:52;;;;;;;10.55;8.50;;;5.60;99.90;;;;;;4842240;29;20828;-90
2023/04/30 01:46:26;;;;;;;11.73;7.50;;;5.70;99.90;;;;;;4841944;29;20883;-91
2023/04/30 01:49:14;;;;;;;11.25;7.35;;;5.70;99.90;;;;;;4843539;29;20425;-91
2023/04/30 01:51:42;;;;;;;17.20;10.15;;;5.70;99.90;;;;;;4841009;29;20456;-91
2023/04/30 01:54:29;;;;;;;13.43;10.70;;;5.70;99.90;;;;;;4843203;29;20489;-91
2023/04/30 01:57:05;;;;;;;14.57;9.43;;;5.80;99.90;;;;;;4842807;29;20423;-92
2023/04/30 01:59:37;;;;;;;15.18;10.15;;;5.80;99.90;;;;;;4841502;29;20477;-94
2023/04/30 02:02:03;;;;;;;10.48;8.40;;;5.90;99.90;;;;;;4843200;29;20439;-92
2023/04/30 02:04:28;;;;;;;14.15;8.40;;;6.30;99.90;;;;;;4841473;29;20480;-90
2023/04/30 02:06:54;;;;;;;16.17;9.52;;;6.00;99.90;;;;;;4843514;29;20491;-91
2023/04/30 02:09:22;;;;;;;17.40;11.83;;;6.10;99.90;;;;;;4826491;29;22233;-92
2023/04/30 02:11:48;;;;;;;13.07;9.05;;;6.20;99.90;;;;;;4842135;29;20440;-93
2023/04/30 02:14:14;;;;;;;9.38;7.63;;;6.50;99.90;;;;;;4842579;29;20786;-92
2023/04/30 02:16:40;;;;;;;12.32;7.60;;;6.30;99.90;;;;;;4841637;29;20425;-91
2023/04/30 02:19:06;;;;;;;12.20;7.32;;;6.30;99.90;;;;;;4842954;29;20427;-92
2023/04/30 02:21:31;;;;;;;11.20;7.93;;;6.30;99.90;;;;;;4841256;29;20450;-92
2023/04/30 02:23:57;;;;;;;11.73;8.57;;;6.30;99.90;;;;;;4842794;29;20424;-91
2023/04/30 02:26:22;;;;;;;13.25;8.10;;;6.40;99.90;;;;;;4841207;29;20483;-92
2023/04/30 02:28:48;;;;;;;13.80;8.47;;;6.40;99.90;;;;;;4842867;29;20421;-91
2023/04/30 02:31:14;;;;;;;12.60;7.05;;;6.50;99.90;;;;;;4842201;29;20444;-90
2023/04/30 02:33:40;;;;;;;14.77;8.20;;;6.50;99.90;;;;;;4841689;29;20925;-94
2023/04/30 02:36:05;;;;;;;14.53;7.43;;;6.60;99.90;;;;;;4842178;29;20786;-91
2023/04/30 02:38:31;;;;;;;12.27;6.20;;;7.10;99.90;;;;;;4841349;29;20456;-91
2023/04/30 02:40:57;;;;;;;10.57;6.93;;;6.80;99.90;;;;;;4842770;29;20507;-90
2023/04/30 02:43:22;;;;;;;13.02;6.88;;;6.60;99.90;;;;;;4840402;29;20891;-91
2023/04/30 02:45:48;;;;;;;14.07;7.40;;;6.60;99.90;;;;;;4842247;29;20429;-92
2023/04/30 02:48:14;;;;;;;12.53;7.00;;;7.00;99.90;;;;;;4840835;29;20432;-92
2023/04/30 02:50:40;;;;;;;14.00;7.40;;;7.10;99.90;;;;;;4841550;29;20460;-92
2023/04/30 02:53:06;;;;;;;11.60;7.47;;;6.70;99.90;;;;;;4841324;29;20428;-91
2023/04/30 02:55:31;;;;;;;10.32;7.47;;;6.70;99.90;;;;;;4840768;29;20429;-89
2023/04/30 02:57:57;;;;;;;16.88;8.98;;;6.70;99.90;;;;;;4842655;29;20511;-93
2023/04/30 03:00:23;;;;;;;15.67;7.93;;;7.10;99.90;;;;;;4840423;29;20839;-92
2023/04/30 03:02:48;;;;;;;14.00;8.20;;;6.70;99.90;;;;;;4842809;29;20846;-93
2023/04/30 03:05:17;;;;;;;12.57;7.40;;;6.60;99.90;;;;;;4840784;29;20456;-90
2023/04/30 03:07:42;;;;;;;11.88;7.50;;;6.60;99.90;;;;;;4841771;29;20515;-91
2023/04/30 03:10:09;;;;;;;13.55;7.70;;;6.70;99.90;;;;;;4840823;29;20536;-91
2023/04/30 03:12:35;;;;;;;12.45;7.47;;;6.60;99.90;;;;;;4841386;29;20443;-92
2023/04/30 03:15:00;;;;;;;12.73;6.60;;;6.80;99.90;;;;;;4841658;29;20504;-92
2023/04/30 03:17:26;;;;;;;11.00;6.60;;;6.60;99.90;;;;;;4840502;29;20442;-91
2023/04/30 03:19:52;;;;;;;14.40;7.65;;;6.70;99.90;;;;;;4842344;29;20409;-92
2023/04/30 03:22:19;;;;;;;13.43;7.78;;;6.80;99.90;;;;;;4839963;29;20963;-91
2023/04/30 03:24:45;;;;;;;13.13;7.67;;;6.70;99.90;;;;;;4842465;29;20906;-91
2023/04/30 03:27:10;;;;;;;14.30;8.70;;;6.70;99.90;;;;;;4840445;29;20448;-90
2023/04/30 03:29:36;;;;;;;12.77;8.10;;;6.60;99.90;;;;;;4841914;29;20460;-91
2023/04/30 03:32:02;;;;;;;11.02;7.10;;;6.60;99.90;;;;;;4841537;29;20458;-93
2023/04/30 03:34:28;;;;;;;10.13;7.22;;;6.60;99.90;;;;;;4840534;29;20798;-92
2023/04/30 03:36:53;;;;;;;11.57;7.20;;;6.60;99.90;;;;;;4841782;29;20429;-91
2023/04/30 03:39:19;;;;;;;11.53;7.57;;;6.50;99.90;;;;;;4839765;29;20827;-91
2023/04/30 03:41:45;;;;;;;13.15;8.50;;;6.70;99.90;;;;;;4841843;29;20428;-90
2023/04/30 03:44:14;;;;;;;11.73;8.25;;;6.50;99.90;;;;;;4840077;29;20428;-91
2023/04/30 03:46:43;;;;;;;11.10;6.85;;;7.00;99.90;;;;;;4841978;29;20421;-91
2023/04/30 03:49:10;;;;;;;12.95;7.60;;;6.50;99.90;;;;;;4840518;29;20424;-90
2023/04/30 03:51:38;;;;;;;11.63;6.45;;;6.70;99.90;;;;;;4840643;29;20874;-90
2023/04/30 03:54:07;;;;;;;10.00;6.30;;;6.40;99.90;;;;;;4841643;29;20764;-93
2023/04/30 03:56:34;;;;;;;10.52;5.78;;;6.40;99.90;;;;;;4839945;29;20427;-90
2023/04/30 03:59:00;;;;;;;12.02;6.78;;;6.00;99.90;;;;;;4842273;29;20476;-91
2023/04/30 04:01:27;;;;;;;12.02;7.13;;;6.10;99.90;;;;;;4843178;29;20459;-90
2023/04/30 04:03:53;;;;;;;16.95;7.15;;;6.20;99.90;;;;;;4845316;29;20511;-93
2023/04/30 04:06:19;;;;;;;11.57;6.25;;;6.20;99.90;;;;;;4843979;29;20511;-92
2023/04/30 04:08:45;;;;;;;12.30;6.50;;;6.10;99.90;;;;;;4844806;29;20484;-90
2023/04/30 04:11:11;;;;;;;11.40;7.13;;;6.00;99.90;;;;;;4844280;29;20871;-92
2023/04/30 04:13:37;;;;;;;10.10;6.45;;;6.00;99.90;;;;;;4843424;29;20868;-91
2023/04/30 04:16:03;;;;;;;11.30;6.37;;;6.00;99.90;;;;;;4845240;29;20428;-91
2023/04/30 04:18:28;;;;;;;9.97;6.60;;;6.00;99.90;;;;;;4843018;29;20918;-92
2023/04/30 04:20:55;;;;;;;9.95;5.88;;;6.20;99.90;;;;;;4845104;29;20423;-92
2023/04/30 04:23:23;;;;;;;11.32;6.70;;;6.20;99.90;;;;;;4842804;29;20510;-91
2023/04/30 04:25:49;;;;;;;12.68;6.15;;;5.90;99.90;;;;;;4844814;29;20902;-92
2023/04/30 04:28:16;;;;;;;10.02;6.22;;;6.10;99.90;;;;;;4843705;29;21263;-91
2023/04/30 04:30:42;;;;;;;12.35;6.60;;;6.00;99.90;;;;;;4843882;29;20508;-90
2023/04/30 04:33:09;;;;;;;13.68;6.45;;;6.00;99.90;;;;;;4844828;29;20494;-91
2023/04/30 04:35:35;;;;;;;10.88;5.60;;;6.20;99.90;;;;;;4843052;29;20444;-90
2023/04/30 04:38:01;;;;;;;11.30;6.10;;;6.80;99.90;;;;;;4844841;29;20436;-91
2023/04/30 04:40:27;;;;;;;10.93;6.22;;;6.20;99.90;;;;;;4843747;29;20429;-92
2023/04/30 04:42:54;;;;;;;11.32;6.60;;;6.20;99.90;;;;;;4844635;29;20420;-91
2023/04/30 04:45:20;;;;;;;11.07;6.05;;;7.00;99.90;;;;;;4842899;29;20432;-90
2023/04/30 04:47:46;;;;;;;11.57;6.63;;;6.40;99.90;;;;;;4843872;29;20436;-91
2023/04/30 04:50:12;;;;;;;11.90;6.65;;;6.30;99.90;;;;;;4838790;29;20536;-91
2023/04/30 04:52:38;;;;;;;13.80;6.35;;;6.50;99.90;;;;;;4849247;29;20967;-91
2023/04/30 04:55:04;;;;;;;12.73;6.10;;;6.40;99.90;;;;;;4863002;29;20411;-91
2023/04/30 04:57:30;;;;;;;13.00;5.60;;;6.50;99.90;;;;;;4860625;29;20780;-91
2023/04/30 04:59:56;;;;;;;11.60;6.10;;;6.70;99.90;;;;;;4862917;29;20423;-93
2023/04/30 05:02:22;;;;;;;14.80;6.83;;;6.50;99.90;;;;;;4860890;29;20415;-93
2023/04/30 05:04:49;;;;;;;15.07;5.80;;;6.70;99.90;;;;;;4862724;29;20984;-93
2023/04/30 05:07:16;;;;;;;13.37;6.00;;;6.60;99.90;;;;;;4861371;29;20419;-92
2023/04/30 05:09:43;;;;;;;10.85;4.78;;;6.60;99.90;;;;;;4861719;29;20463;-91
2023/04/30 05:12:09;;;;;;;11.35;5.45;;;6.70;99.90;;;;;;4861185;29;20450;-91
2023/04/30 05:14:36;;;;;;;11.25;5.53;;;6.70;99.90;;;;;;4860855;29;20447;-93
2023/04/30 05:17:01;;;;;;;12.30;5.80;;;6.90;99.90;;;;;;4862992;29;20994;-93
2023/04/30 05:19:27;;;;;;;9.80;6.00;;;7.10;99.90;;;;;;4860135;29;20502;-92
2023/04/30 05:21:53;;;;;;;12.18;5.53;;;7.00;99.90;;;;;;4855871;29;20453;-92
2023/04/30 05:24:18;;;;;;;9.07;4.97;;;7.50;99.90;;;;;;4860849;29;20419;-91
2023/04/30 05:26:44;;;;;;;10.13;4.65;;;7.10;99.90;;;;;;4861596;29;21147;-93
2023/04/30 05:29:10;;;;;;;10.48;4.82;;;7.10;99.90;;;;;;4861553;29;20450;-92
2023/04/30 05:31:36;;;;;;;11.57;5.10;;;7.30;99.90;;;;;;4860378;29;20454;-92
2023/04/30 05:34:02;;;;;;;10.30;4.80;;;7.40;99.90;;;;;;4862084;29;20415;-93
2023/04/30 05:36:28;;;;;;;11.95;4.95;;;7.50;99.90;;;;;;4860331;29;20453;-91
2023/04/30 05:38:54;;;;;;;9.60;4.77;;;7.60;99.90;;;;;;4862406;29;20468;-92
2023/04/30 05:41:20;;;;;;;12.18;5.18;;;7.70;99.90;;;;;;4859973;29;20430;-91
2023/04/30 05:43:46;;;;;;;10.93;4.38;;;8.10;99.90;;;;;;4846563;29;20473;-93
2023/04/30 05:46:12;;;;;;;11.02;4.00;;;7.90;99.90;;;;;;4845549;29;20425;-94
2023/04/30 05:48:38;;;;;;;10.50;4.40;;;8.20;99.90;;;;;;4847322;29;20477;-93
2023/04/30 05:51:07;;;;;;;9.02;3.92;;;8.20;99.90;;;;;;4851302;29;20958;-92
2023/04/30 05:53:33;;;;;;;10.67;3.77;;;8.20;99.90;;;;;;4860127;29;20423;-94
2023/04/30 05:55:58;;;;;;;11.90;3.50;;;8.30;99.90;;;;;;4861923;29;20426;-92
2023/04/30 05:58:24;;;;;;;9.73;3.33;;;8.40;99.90;;;;;;4860129;29;21031;-91
2023/04/30 06:00:51;;;;;;;11.80;4.20;;;8.50;99.90;;;;;;4861748;29;20418;-92
2023/04/30 06:03:19;;;;;;;9.85;3.88;;;8.50;99.90;;;;;;4860009;29;20419;-91
2023/04/30 06:05:46;;;;;;;9.45;3.28;;;8.90;99.90;;;;;;4861301;29;20459;-90
2023/04/30 06:08:12;;;;;;;11.40;3.85;;;8.60;99.90;;;;;;4861116;29;20419;-91
2023/04/30 06:10:38;;;;;;;10.50;3.70;;;8.60;99.90;;;;;;4860054;29;20518;-92
2023/04/30 06:13:04;;;;;;;11.15;3.88;;;8.60;99.90;;;;;;4861630;29;20455;-91
2023/04/30 06:15:30;;;;;;;12.93;4.30;;;8.80;99.90;;;;;;4851120;29;20453;-90
2023/04/30 06:17:55;;;;;;;10.93;4.20;;;8.90;99.90;;;;;;4843137;29;20433;-91
2023/04/30 06:20:21;;;;;;;10.63;4.80;;;9.20;99.90;;;;;;4841215;29;20949;-90
2023/04/30 06:22:47;;;;;;;11.82;4.40;;;8.90;99.90;;;;;;4842423;29;20451;-91
2023/04/30 06:25:13;;;;;;;10.73;4.20;;;8.60;99.90;;;;;;4841496;29;20429;-91
2023/04/30 06:27:38;;;;;;;9.80;3.80;;;9.00;99.90;;;;;;4841683;29;20512;-91
2023/04/30 06:30:05;;;;;;;8.50;3.30;;;9.10;99.90;;;;;;4842503;29;20524;-92
2023/04/30 06:32:31;;;;;;;12.10;3.80;;;9.10;99.90;;;;;;4838116;29;20469;-91
2023/04/30 06:34:56;;;;;;;9.73;3.60;;;9.30;99.90;;;;;;4841924;29;20413;-92
2023/04/30 06:37:22;;;;;;;11.13;3.77;;;9.40;99.90;;;;;;4854401;29;20420;-90
2023/04/30 06:39:48;;;;;;;12.00;3.13;;;9.60;99.90;;;;;;4860711;29;20419;-91
2023/04/30 06:42:14;;;;;;;8.70;2.90;;;10.00;99.90;;;;;;4859160;29;20415;-92
2023/04/30 06:44:39;;;;;;;8.52;2.60;;;9.60;99.90;;;;;;4860486;29;20533;-91
2023/04/30 06:47:05;;;;;;;10.60;3.00;;;10.10;99.90;;;;;;4859812;29;20419;-90
2023/04/30 06:49:31;;;;;;;11.63;3.60;;;10.20;99.90;;;;;;4860295;29;20419;-90
2023/04/30 06:51:57;;;;;;;9.93;2.63;;;10.20;99.90;;;;;;4859242;29;20449;-90
2023/04/30 06:54:25;;;;;;;9.32;3.28;;;10.30;99.90;;;;;;4858698;29;20451;-93
2023/04/30 06:56:51;;;;;;;8.98;2.40;;;10.40;99.90;;;;;;4860439;29;20478;-93
2023/04/30 06:59:17;;;;;;;9.63;2.63;;;10.50;99.90;;;;;;4858542;29;20422;-90
2023/04/30 07:01:42;;;;;;;8.50;2.92;;;10.50;99.90;;;;;;4860415;29;20418;-91
2023/04/30 07:04:08;;;;;;;7.33;2.47;;;10.70;99.90;;;;;;4859540;29;20447;-92
2023/04/30 07:06:34;;;;;;;8.57;2.75;;;10.70;99.90;;;;;;4859509;29;20462;-93
2023/04/30 07:09:00;;;;;;;9.98;2.75;;;10.90;99.90;;;;;;4860478;29;20407;-92
2023/04/30 07:11:25;;;;;;;9.53;2.13;;;11.40;99.90;;;;;;4858839;29;20450;-93
2023/04/30 07:13:54;;;;;;;8.77;2.35;;;11.00;99.90;;;;;;4875986;29;20927;-92
2023/04/30 07:16:20;;;;;;;7.43;2.50;;;11.60;99.90;;;;;;4858104;29;20408;-91
2023/04/30 07:18:47;;;;;;;10.77;2.83;;;11.50;99.90;;;;;;4860395;29;20878;-92
2023/04/30 07:21:14;;;;;;;10.00;2.30;;;11.20;99.90;;;;;;4852238;29;20554;-92
2023/04/30 07:23:39;;;;;;;10.47;2.57;;;11.30;99.90;;;;;;4841035;29;20810;-90
2023/04/30 07:26:05;;;;;;;9.53;2.80;;;11.30;99.90;;;;;;4840767;29;20444;-90
2023/04/30 07:28:31;;;;;;;8.70;2.58;;;11.40;99.90;;;;;;4840466;29;20500;-92
2023/04/30 07:30:56;;;;;;;11.47;3.50;;;11.40;99.90;;;;;;4841214;29;20444;-90
2023/04/30 07:33:22;;;;;;;9.23;2.75;;;11.40;99.90;;;;;;4839968;29;20442;-93
2023/04/30 07:35:48;;;;;;;9.80;2.97;;;11.40;99.90;;;;;;4844136;29;20496;-92
2023/04/30 07:38:14;;;;;;;8.90;2.70;;;11.60;99.90;;;;;;4843062;29;20508;-92
2023/04/30 07:40:39;;;;;;;8.70;2.88;;;11.80;99.90;;;;;;4845101;29;20891;-91
2023/04/30 07:43:05;;;;;;;10.23;3.00;;;12.00;99.90;;;;;;4843743;29;20914;-91
2023/04/30 07:45:32;;;;;;;10.27;2.80;;;11.80;99.90;;;;;;4844945;29;20424;-93
2023/04/30 07:47:58;;;;;;;8.77;2.60;;;11.70;99.90;;;;;;4844227;29;20934;-91
2023/04/30 07:50:24;;;;;;;10.23;3.13;;;12.00;99.90;;;;;;4843532;29;20511;-92
2023/04/30 07:52:49;;;;;;;10.68;2.95;;;12.30;99.90;;;;;;4861291;29;20439;-93
2023/04/30 07:55:15;;;;;;;9.13;2.93;;;12.20;99.90;;;;;;4861834;29;20411;-93
2023/04/30 07:57:41;;;;;;;11.17;2.40;;;12.20;99.90;;;;;;4847782;29;20416;-90
2023/04/30 08:00:07;;;;;;;7.85;2.63;;;12.50;99.90;;;;;;4842981;29;20488;-92
2023/04/30 08:02:33;;;;;;;10.30;2.75;;;12.30;99.90;;;;;;4858323;29;20979;-92
2023/04/30 08:04:59;;;;;;;9.80;2.90;;;12.50;99.90;;;;;;4861699;29;20419;-92
2023/04/30 08:07:24;;;;;;;8.43;3.07;;;13.00;99.90;;;;;;4848974;29;20500;-92
2023/04/30 08:09:50;;;;;;;8.48;2.85;;;12.50;99.90;;;;;;4843870;29;20412;-93
2023/04/30 08:12:17;;;;;;;9.43;2.53;;;12.30;99.90;;;;;;4853877;29;20427;-92
2023/04/30 08:14:42;;;;;;;9.18;2.38;;;12.60;99.90;;;;;;4863050;29;20505;-92
2023/04/30 08:17:08;;;;;;;9.23;2.33;;;12.60;99.90;;;;;;4861434;29;20518;-93
2023/04/30 08:19:34;;;;;;;11.00;1.90;;;12.50;99.70;;;;;;4862988;29;20431;-92
2023/04/30 08:22:00;;;;;;;10.20;2.13;;;12.60;99.90;;;;;;4861696;29;20425;-89
2023/04/30 08:24:25;;;;;;;7.80;1.93;;;13.00;99.40;;;;;;4862409;29;20427;-91
2023/04/30 08:26:51;;;;;;;8.25;2.10;;;12.80;99.90;;;;;;4862331;29;20420;-93
2023/04/30 08:29:17;;;;;;;7.13;2.15;;;12.90;99.10;;;;;;4861404;29;20425;-91
2023/04/30 08:31:43;;;;;;;7.77;2.03;;;12.70;97.60;;;;;;4862287;29;20473;-92
2023/04/30 08:34:08;;;;;;;6.80;1.65;;;13.40;99.90;;;;;;4860827;29;20975;-93
2023/04/30 08:36:34;;;;;;;9.67;2.07;;;13.30;93.90;;;;;;4863098;29;20797;-93
2023/04/30 08:39:01;;;;;;;7.57;1.95;;;13.70;95.40;;;;;;4860653;29;20426;-91
2023/04/30 08:41:31;;;;;;;8.77;2.00;;;13.70;90.90;;;;;;4859241;29;20434;-91
2023/04/30 08:44:01;;;;;;;7.73;1.90;;;13.90;91.00;;;;;;4843541;29;20436;-91
2023/04/30 08:46:29;;;;;;;8.30;2.00;;;13.70;83.90;;;;;;4843206;29;20416;-93
2023/04/30 08:48:55;;;;;;;9.02;1.83;;;13.80;90.40;;;;;;4843677;29;20420;-92
2023/04/30 08:51:23;;;;;;;6.43;1.83;;;13.80;90.40;;;;;;4844553;29;20457;-91
2023/04/30 08:53:50;;;;;;;7.77;1.97;;;13.90;92.60;;;;;;4862344;29;20422;-92
2023/04/30 08:56:15;;;;;;;8.68;2.03;;;13.90;83.80;;;;;;4860686;29;20508;-91
2023/04/30 08:58:42;;;;;;;8.13;1.98;;;13.90;82.50;;;;;;4862183;29;20920;-93
2023/04/30 09:01:09;;;;;;;8.68;2.03;;;14.10;76.00;;;;;;4861142;29;20415;-91
2023/04/30 09:03:36;;;;;;;7.32;2.15;;;13.70;85.70;;;;;;4860899;29;20426;-93
2023/04/30 09:06:02;;;;;;;7.55;2.08;;;13.60;78.30;;;;;;4860996;29;20457;-93
2023/04/30 09:08:40;;;;;;;8.93;2.37;;;13.50;86.20;;;;;;4859808;29;20466;-92
2023/04/30 09:11:27;;;;;;;8.48;2.22;;;13.70;90.10;;;;;;4862285;29;20446;-93
2023/04/30 09:13:59;;;;;;;7.80;2.00;;;13.40;86.90;;;;;;4860935;29;20427;-91
2023/04/30 09:16:26;;;;;;;8.13;2.00;;;13.40;85.40;;;;;;4860251;29;20475;-92
2023/04/30 09:18:52;;;;;;;7.40;2.00;;;13.40;83.10;;;;;;4842717;29;21008;-91
2023/04/30 09:21:32;;;;;;;7.93;2.10;;;13.50;84.30;;;;;;4841852;29;20417;-93
2023/04/30 09:24:00;;;;;;;8.73;1.90;;;13.50;90.10;;;;;;4853246;29;20421;-90
2023/04/30 09:26:36;;;;;;;8.35;2.13;;;13.50;90.90;;;;;;4840991;29;21122;-93
2023/04/30 09:29:06;;;;;;;6.72;1.48;;;13.60;84.80;;;;;;4847515;29;20421;-93
2023/04/30 09:31:41;;;;;;;8.20;1.92;;;13.50;87.60;;;;;;4841987;29;20499;-93
2023/04/30 09:34:06;;;;;;;7.43;1.77;;;13.60;90.90;;;;;;4842541;29;20424;-92
2023/04/30 09:36:33;;;;;;;6.17;1.80;;;13.70;91.00;;;;;;4843062;29;20512;-93
2023/04/30 09:39:17;;;;;;;7.25;2.10;;;14.20;86.70;;;;;;4841167;29;20420;-93
2023/04/30 09:41:43;;;;;;;9.40;2.00;;;14.40;84.80;;;;;;4843290;29;20531;-93
2023/04/30 09:44:29;;;;;;;7.45;1.92;;;14.30;81.80;;;;;;4841310;29;20427;-95
2023/04/30 09:46:58;;;;;;;5.85;1.70;;;14.50;89.20;;;;;;4842419;29;20940;-92
2023/04/30 09:49:25;;;;;;;6.63;1.60;;;14.60;85.40;;;;;;4842629;29;20417;-92
2023/04/30 09:51:58;;;;;;;8.43;1.77;;;15.10;79.20;;;;;;4840565;29;20457;-92
2023/04/30 09:54:26;;;;;;;7.93;1.90;;;15.00;76.30;;;;;;4842939;29;20443;-92
2023/04/30 09:56:54;;;;;;;6.40;1.98;;;15.30;72.90;;;;;;4840189;29;20468;-94
2023/04/30 09:59:27;;;;;;;6.95;1.90;;;15.30;67.60;;;;;;4842646;29;20417;-93
2023/04/30 10:01:54;;;;;;;6.03;1.60;;;15.40;65.80;;;;;;4844334;29;20433;-95
2023/04/30 10:04:20;;;;;;;8.05;1.70;;;15.60;66.60;;;;;;4860430;29;20442;-91
2023/04/30 10:06:47;;;;;;;6.87;1.17;;;15.90;66.30;;;;;;4860225;29;20522;-92
2023/04/30 10:09:14;;;;;;;6.20;1.58;;;15.90;60.50;;;;;;4859553;29;20431;-93
2023/04/30 10:11:43;;;;;;;8.27;1.75;;;15.80;63.90;;;;;;4860187;29;20529;-94
2023/04/30 10:14:14;;;;;;;7.40;1.83;;;16.00;65.70;;;;;;4840526;29;20782;-92
2023/04/30 10:17:06;;;;;;;6.22;1.63;;;16.10;68.30;;;;;;4842419;29;20416;-92
2023/04/30 10:19:35;;;;;;;7.40;1.60;;;16.10;65.70;;;;;;4841211;29;20444;-94
2023/04/30 10:22:01;;;;;;;7.82;1.48;;;16.30;68.60;;;;;;4841076;29;20421;-92
2023/04/30 10:24:27;;;;;;;6.70;1.70;;;16.70;65.50;;;;;;4842245;29;20413;-92
2023/04/30 10:26:56;;;;;;;6.28;1.75;;;17.20;61.20;;;;;;4840122;29;20412;-92
2023/04/30 10:29:22;;;;;;;5.20;1.45;;;17.60;62.10;;;;;;4842901;29;20922;-91
2023/04/30 10:31:51;;;;;;;5.53;1.42;;;18.00;57.90;;;;;;4840512;29;20480;-91
2023/04/30 10:34:44;;;;;;;4.80;1.02;;;18.20;56.10;;;;;;4841723;29;20425;-92
2023/04/30 10:37:45;;;;;;;5.25;1.60;;;18.30;56.90;;;;;;4842252;29;20421;-93
2023/04/30 10:40:11;;;;;;;5.15;1.42;;;18.60;56.40;;;;;;4840534;29;20808;-92
2023/04/30 10:42:37;;;;;;;4.25;1.58;;;18.70;53.60;;;;;;4842173;29;21032;-94
2023/04/30 10:45:03;;;;;;;4.80;1.37;;;18.90;57.50;;;;;;4840706;29;20440;-93
2023/04/30 10:47:29;;;;;;;3.90;1.25;;;19.40;54.90;;;;;;4846455;29;20419;-93
2023/04/30 10:50:03;;;;;;;4.80;1.33;;;19.70;55.00;;;;;;4859194;29;20449;-92
2023/04/30 10:52:29;;;;;;;5.27;1.40;;;19.90;51.60;;;;;;4858291;29;20432;-94
2023/04/30 10:54:55;;;;;;;4.20;1.50;;;20.00;52.30;;;;;;4860458;29;20438;-95
2023/04/30 10:57:21;;;;;;;4.40;1.45;;;20.30;52.50;;;;;;4858692;29;20427;-93
2023/04/30 10:59:53;;;;;;;4.20;1.30;;;20.70;52.40;;;;;;4860293;29;20464;-94
2023/04/30 11:02:18;;;;;;;2.80;1.00;;;21.00;52.60;;;;;;4855474;29;20421;-94
2023/04/30 11:05:06;;;;;;;3.70;1.15;;;21.50;50.40;;;;;;4840636;29;20930;-95
2023/04/30 11:07:33;;;;;;;4.03;1.20;;;21.60;49.10;;;;;;4834094;29;20516;-92
2023/04/30 11:10:00;;;;;;;3.40;1.20;;;21.70;48.40;;;;;;4838316;29;20412;-93
2023/04/30 11:12:27;;;;;;;5.85;1.40;;;22.00;48.70;;;;;;4841750;29;20420;-95
2023/04/30 11:15:00;;;;;;;3.13;1.10;;;22.00;46.60;;;;;;4839525;29;20417;-94
2023/04/30 11:17:26;;;;;;;3.08;0.90;;;22.10;47.00;;;;;;4841693;29;20444;-94
2023/04/30 11:19:53;;;;;;;3.03;0.70;;;22.20;48.30;;;;;;4840665;29;20424;-94
2023/04/30 11:22:21;;;;;;;3.10;0.65;;;22.30;47.50;;;;;;4842303;29;20915;-94
2023/04/30 11:24:51;;;;;;;3.03;0.70;;;22.20;46.70;;;;;;4859308;29;20483;-94
2023/04/30 11:27:22;;;;;;;3.00;0.70;;;22.40;45.50;;;;;;4856738;29;21251;-94
2023/04/30 11:29:48;;;;;;;2.72;0.70;;;22.50;42.90;;;;;;4841442;29;20439;-93
2023/04/30 11:32:15;;;;;;;1.50;0.40;;;22.70;45.80;;;;;;4840280;29;20424;-96
2023/04/30 11:34:43;;;;;;;1.85;0.50;;;22.60;44.10;;;;;;4859385;29;20908;-94
2023/04/30 11:37:12;;;;;;;2.17;0.55;;;22.70;44.50;;;;;;4858789;29;20451;-95
2023/04/30 11:39:39;;;;;;;3.05;0.50;;;23.00;47.20;;;;;;4858130;29;20419;-95
2023/04/30 11:42:06;;;;;;;4.17;1.10;;;23.40;43.00;;;;;;4856180;29;20438;-93
2023/04/30 11:44:32;;;;;;;2.60;0.80;;;23.60;44.10;;;;;;4855165;29;20958;-94
2023/04/30 11:46:58;;;;;;;4.35;1.00;;;23.40;42.50;;;;;;4857434;29;20429;-95
2023/04/30 11:49:25;;;;;;;2.22;0.75;;;23.30;43.60;;;;;;4856928;29;20865;-93
2023/04/30 11:51:52;;;;;;;3.35;0.75;;;23.30;43.90;;;;;;4860042;29;20439;-95
2023/04/30 11:54:18;;;;;;;2.13;0.70;;;23.80;47.10;;;;;;4859388;29;20995;-94
2023/04/30 11:56:48;;;;;;;3.13;0.80;;;24.00;44.50;;;;;;4860123;29;20543;-95
2023/04/30 11:59:14;;;;;;;2.53;0.75;;;24.30;43.80;;;;;;4859383;29;21078;-91
2023/04/30 12:01:40;;;;;;;3.00;0.77;;;24.70;42.60;;;;;;4858247;29;20924;-95
2023/04/30 12:04:07;;;;;;;2.90;0.70;;;25.00;41.90;;;;;;4859457;29;20530;-94
2023/04/30 12:06:34;;;;;;;3.45;0.98;;;24.80;41.90;;;;;;4858692;29;20883;-95
2023/04/30 12:09:10;;;;;;;1.83;0.57;;;25.00;43.80;;;;;;4860594;29;20414;-94
2023/04/30 12:11:37;;;;;;;2.17;0.50;;;25.30;42.30;;;;;;4858385;29;20442;-96
2023/04/30 12:14:09;;;;;;;2.83;0.90;;;25.40;41.20;;;;;;4860031;29;20928;-95
2023/04/30 12:16:50;;;;;;;2.35;0.98;;;25.30;41.30;;;;;;4859537;29;20426;-94
2023/04/30 12:19:18;;;;;;;1.90;0.30;;;25.30;40.10;;;;;;4858762;29;20534;-87
2023/04/30 12:21:48;;;;;;;2.50;0.50;;;25.60;40.80;;;;;;4876045;29;20427;-90
2023/04/30 12:24:18;;;;;;;2.50;0.60;;;25.70;39.60;;;;;;4874830;29;20410;-86
2023/04/30 12:26:44;;;;;;;1.75;0.50;;;25.80;41.80;;;;;;4876313;29;20454;-85
2023/04/30 12:29:13;;;;;;;2.60;0.60;;;25.90;39.20;;;;;;4875264;29;20415;-85
2023/04/30 12:31:40;;;;;;;4.10;0.60;;;26.00;38.60;;;;;;4876429;29;20599;-88
2023/04/30 12:34:13;;;;;;;3.30;0.70;;;26.10;39.00;;;;;;4876068;29;20427;-86
2023/04/30 12:36:44;;;;;;;3.33;0.70;;;26.20;41.30;;;;;;4874801;29;20914;-92
2023/04/30 12:39:11;;;;;;;2.25;0.57;;;26.60;40.10;;;;;;4876692;29;20813;-89
2023/04/30 12:41:42;;;;;;;2.60;0.80;;;26.90;37.70;;;;;;4874621;29;20455;-86
2023/04/30 12:44:20;;;;;;;3.63;0.90;;;26.50;35.90;;;;;;4876238;29;20502;-85
2023/04/30 12:46:50;;;;;;;2.90;0.77;;;25.90;40.70;;;;;;4875390;29;20438;-85
2023/04/30 12:49:32;;;;;;;3.10;0.70;;;26.00;41.00;;;;;;4875026;29;20457;-88
2023/04/30 12:52:25;;;;;;;2.40;0.70;;;25.90;40.30;;;;;;4875736;29;20757;-86